createdAt,value
2023-05-23T06:21:47.963Z,194.65
2023-05-23T06:31:48.035Z,228.73
2023-05-23T06:41:47.911Z,172.46
2023-05-23T06:51:47.925Z,217.29
2023-05-23T07:01:48.098Z,221.80
2023-05-23T07:11:48.074Z,271.75
2023-05-23T07:21:48.117Z,307.28
2023-05-23T07:31:48.234Z,207.97
2023-05-23T07:41:48.118Z,233.37
2023-05-23T07:51:48.000Z,225.63
2023-05-23T08:01:48.066Z,253.62
2023-05-23T08:11:47.965Z,260.52
2023-05-23T08:21:48.019Z,327.95
2023-05-23T08:31:48.005Z,229.03
2023-05-23T08:41:48.240Z,308.19
2023-05-23T08:51:48.152Z,341.10
2023-05-23T09:01:48.130Z,314.32
2023-05-23T09:11:48.086Z,340.47
2023-05-23T09:21:48.200Z,323.11
2023-05-23T09:31:48.389Z,298.60
2023-05-23T09:41:48.332Z,283.34
2023-05-23T09:51:48.126Z,307.04
2023-05-23T10:01:48.364Z,313.37
2023-05-23T10:11:48.136Z,308.15
2023-05-23T10:21:48.231Z,324.46
2023-05-23T10:31:48.251Z,308.27
2023-05-23T10:41:48.218Z,324.61
2023-05-23T10:51:50.318Z,332.85
2023-05-23T11:01:48.264Z,293.42
2023-05-23T11:11:48.235Z,326.78
2023-05-23T11:21:48.383Z,296.25
2023-05-23T11:31:48.575Z,355.32
2023-05-23T11:41:48.239Z,333.81
2023-05-23T11:51:48.377Z,326.97
2023-05-23T12:01:48.229Z,318.26
2023-05-23T12:11:48.346Z,321.96
2023-05-23T12:21:48.379Z,325.95
2023-05-23T12:31:48.475Z,347.09
2023-05-23T12:41:48.498Z,321.56
2023-05-23T12:51:48.406Z,333.15
2023-05-23T13:01:48.352Z,341.17
2023-05-23T13:11:48.425Z,334.04
2023-05-23T13:21:49.865Z,326.86
2023-05-23T13:31:48.347Z,314.74
2023-05-23T13:41:48.327Z,340.95
2023-05-23T13:51:48.447Z,312.22
2023-05-23T14:01:48.474Z,321.34
2023-05-23T14:11:48.579Z,316.47
2023-05-23T14:21:48.453Z,328.49
2023-05-23T14:31:48.644Z,315.84
2023-05-23T14:41:48.514Z,331.46
2023-05-23T14:51:51.347Z,320.32
2023-05-23T15:01:48.554Z,321.45
2023-05-23T15:11:48.575Z,346.54
2023-05-23T15:21:51.395Z,278.26
2023-05-23T15:31:48.557Z,306.71
2023-05-23T15:41:48.528Z,329.33
2023-05-23T15:51:48.530Z,342.75
2023-05-23T16:01:48.569Z,318.63
2023-05-23T16:11:48.461Z,319.59
2023-05-23T16:21:48.638Z,285.44
2023-05-23T16:31:48.631Z,336.59
2023-05-23T16:41:48.467Z,334.36
2023-05-23T16:51:48.925Z,331.14
2023-05-23T17:01:48.783Z,330.56
2023-05-23T17:11:48.429Z,315.00
2023-05-23T17:21:48.635Z,333.45
2023-05-23T17:31:48.693Z,340.75
2023-05-23T17:41:48.549Z,339.61
2023-05-23T17:51:48.566Z,319.41
2023-05-23T18:01:48.568Z,330.22
2023-05-23T18:11:48.635Z,345.50
2023-05-23T18:21:48.895Z,315.62
2023-05-23T18:31:49.071Z,321.26
2023-05-23T18:41:49.036Z,322.86
2023-05-23T18:51:49.323Z,345.44
2023-05-23T19:01:49.292Z,296.79
2023-05-23T19:11:49.429Z,316.21
2023-05-23T19:21:49.707Z,301.00
